createdAt,value
2022-10-21T00:01:05.549Z,99651.95
2022-10-21T00:06:14.699Z,99656.77
2022-10-21T00:11:17.626Z,99654.25
2022-10-21T00:16:20.863Z,99647.06
2022-10-21T00:21:23.849Z,99657.74
2022-10-21T00:26:26.731Z,99654.61
2022-10-21T00:31:30.648Z,99644.99
2022-10-21T00:36:33.842Z,99636.33
2022-10-21T00:41:36.771Z,99622.11
2022-10-21T00:47:01.118Z,99610.83
2022-10-21T00:52:08.770Z,99602.50
2022-10-21T00:57:11.888Z,99592.69
2022-10-21T01:02:14.998Z,99576.05
2022-10-21T01:07:18.342Z,99560.86
2022-10-21T01:12:59.775Z,99574.42
2022-10-21T01:18:24.686Z,99580.94
2022-10-21T01:23:47.054Z,99575.10
2022-10-21T01:28:58.812Z,99560.84
2022-10-21T01:34:26.212Z,99551.38
2022-10-21T01:39:35.593Z,99560.96
2022-10-21T01:44:43.130Z,99559.48
2022-10-21T01:50:00.428Z,99563.99
2022-10-21T01:55:08.811Z,99563.44
2022-10-21T02:00:12.687Z,99558.83
2022-10-21T02:05:23.182Z,99556.59
2022-10-21T02:10:30.148Z,99556.52
2022-10-21T02:15:34.455Z,99555.31
2022-10-21T02:20:42.500Z,99557.59
2022-10-21T02:25:48.910Z,99556.80
2022-10-21T02:31:07.184Z,99555.50
2022-10-21T02:36:12.696Z,99552.41
2022-10-21T02:41:21.405Z,99542.42
2022-10-21T02:46:25.123Z,99531.75
2022-10-21T02:51:28.162Z,99538.83
2022-10-21T02:56:31.264Z,99527.98
2022-10-21T03:01:34.224Z,99509.19
2022-10-21T03:06:37.106Z,99508.30
2022-10-21T03:11:39.977Z,99511.14
2022-10-21T03:16:42.880Z,99517.73
2022-10-21T03:21:45.790Z,99511.60
2022-10-21T03:26:48.733Z,99515.08
2022-10-21T03:31:51.656Z,99512.31
2022-10-21T03:36:56.028Z,99500.15
2022-10-21T03:41:58.934Z,99481.47
2022-10-21T03:47:01.886Z,99486.23
2022-10-21T03:52:04.850Z,99496.05
2022-10-21T03:57:08.078Z,99488.54
2022-10-21T04:02:11.023Z,99484.09
2022-10-21T04:07:14.178Z,99478.81
2022-10-21T04:12:17.066Z,99474.73
2022-10-21T04:17:20.091Z,99468.64
2022-10-21T04:22:23.288Z,99451.27
2022-10-21T04:27:26.148Z,99445.52
2022-10-21T04:32:29.067Z,99442.47
2022-10-21T04:37:32.198Z,99437.40
2022-10-21T04:42:35.131Z,99433.73
2022-10-21T04:47:38.324Z,99431.93
2022-10-21T04:52:41.510Z,99425.55
2022-10-21T04:57:44.652Z,99425.17
2022-10-21T05:02:47.859Z,99430.80
2022-10-21T05:07:50.779Z,99427.27
2022-10-21T05:12:53.781Z,99420.69
2022-10-21T05:17:56.749Z,99412.72
2022-10-21T05:22:59.774Z,99415.39
2022-10-21T05:28:02.757Z,99420.47
2022-10-21T05:33:06.949Z,99423.77
2022-10-21T05:38:10.047Z,99435.39
2022-10-21T05:43:12.981Z,99444.32
2022-10-21T05:48:18.442Z,99442.77
2022-10-21T05:53:24.027Z,99439.39
2022-10-21T05:58:28.155Z,99437.45
2022-10-21T06:03:33.128Z,99439.74
2022-10-21T06:08:39.308Z,99434.91
2022-10-21T06:13:42.865Z,99436.67
2022-10-21T06:18:45.885Z,99428.92
2022-10-21T06:23:53.794Z,99407.70
2022-10-21T06:28:57.898Z,99410.79
2022-10-21T06:34:00.865Z,99437.19
2022-10-21T06:39:05.752Z,99477.52
2022-10-21T06:44:08.685Z,99473.80
2022-10-21T06:49:11.667Z,99475.30
2022-10-21T06:54:14.647Z,99474.05
2022-10-21T06:59:17.701Z,99457.39
2022-10-21T07:04:20.579Z,99461.83
2022-10-21T07:09:23.525Z,99462.45
2022-10-21T07:14:26.728Z,99470.95
2022-10-21T07:19:29.854Z,99462.52
2022-10-21T07:24:33.232Z,99447.00
2022-10-21T07:29:36.146Z,99456.55
2022-10-21T07:34:39.060Z,99445.73
2022-10-21T07:39:42.093Z,99444.78
2022-10-21T07:44:45.055Z,99447.50
2022-10-21T07:49:47.889Z,99435.50
2022-10-21T07:54:50.882Z,99434.39
2022-10-21T07:59:56.335Z,99427.48
2022-10-21T08:04:59.384Z,99421.63
2022-10-21T08:10:02.823Z,99408.98
2022-10-21T08:15:06.150Z,99396.77
2022-10-21T08:20:09.683Z,99389.72
2022-10-21T08:25:16.769Z,99381.09
2022-10-21T08:30:19.655Z,99378.23
2022-10-21T08:35:22.591Z,99378.51
2022-10-21T08:40:26.178Z,99368.73
2022-10-21T08:45:38.251Z,99361.81
2022-10-21T08:50:47.339Z,99339.17
2022-10-21T08:55:52.736Z,99335.33
2022-10-21T09:01:10.879Z,99334.21
2022-10-21T09:06:19.696Z,99334.11
2022-10-21T09:11:34.558Z,99333.23
2022-10-21T09:16:58.376Z,99325.77
2022-10-21T09:22:29.996Z,99315.39
2022-10-21T09:27:51.520Z,99314.30
2022-10-21T09:32:59.651Z,99310.17
2022-10-21T09:38:14.190Z,99307.41
2022-10-21T09:43:20.995Z,99291.88
2022-10-21T09:48:41.719Z,99289.63
2022-10-21T09:53:57.459Z,99293.29
2022-10-21T09:59:07.643Z,99288.64
2022-10-21T10:04:14.968Z,99273.09
2022-10-21T10:09:34.097Z,99259.88
2022-10-21T10:14:39.733Z,99236.66
2022-10-21T10:19:42.683Z,99218.09
2022-10-21T10:24:45.671Z,99205.91
2022-10-21T10:30:00.847Z,99200.27
2022-10-21T10:35:14.945Z,99197.54
2022-10-21T10:40:28.867Z,99186.27
2022-10-21T10:45:32.306Z,99181.14
2022-10-21T10:50:38.033Z,99182.10
2022-10-21T10:55:45.584Z,99177.51
2022-10-21T11:00:52.048Z,99167.14
2022-10-21T11:06:08.399Z,99164.55
2022-10-21T11:11:20.028Z,99148.19
2022-10-21T11:16:50.574Z,99139.57
2022-10-21T11:22:24.163Z,99125.88
2022-10-21T11:28:02.681Z,99118.66
2022-10-21T11:33:23.641Z,99109.80
2022-10-21T11:38:41.396Z,99100.42
2022-10-21T11:44:05.687Z,99079.35
2022-10-21T11:49:40.800Z,99065.89
2022-10-21T11:55:08.350Z,99060.84
2022-10-21T12:00:26.534Z,99056.55
2022-10-21T12:05:47.102Z,99056.30
2022-10-21T12:10:55.700Z,99043.59
2022-10-21T12:16:02.455Z,99025.37
2022-10-21T12:21:07.235Z,99029.56
2022-10-21T12:26:18.022Z,99018.82
2022-10-21T12:31:38.275Z,99010.36
2022-10-21T12:36:41.351Z,99000.27
2022-10-21T12:41:47.301Z,99004.27
2022-10-21T12:46:56.573Z,98997.02
2022-10-21T12:52:22.734Z,98982.87
2022-10-21T12:57:28.287Z,98980.30
2022-10-21T13:02:31.383Z,98976.45
2022-10-21T13:07:36.175Z,98965.52
2022-10-21T13:12:39.411Z,98968.00
2022-10-21T13:17:56.294Z,98971.08
2022-10-21T13:23:31.792Z,98977.08
2022-10-21T13:28:34.898Z,98973.85
2022-10-21T13:33:39.218Z,98968.20
2022-10-21T13:38:51.313Z,98961.13
2022-10-21T13:43:55.852Z,98954.85
2022-10-21T13:49:01.987Z,98948.41
2022-10-21T13:54:16.197Z,98938.42
2022-10-21T13:59:30.054Z,98931.70
2022-10-21T14:04:40.215Z,98931.91
2022-10-21T14:09:46.632Z,98936.71
2022-10-21T14:14:50.159Z,98942.59
2022-10-21T14:20:07.813Z,98944.33
2022-10-21T14:25:16.118Z,98944.65
2022-10-21T14:30:25.821Z,98945.79
2022-10-21T14:35:30.459Z,98946.85
2022-10-21T14:40:37.780Z,98943.86
2022-10-21T14:45:53.956Z,98931.95
2022-10-21T14:51:11.247Z,98929.30
2022-10-21T14:56:22.373Z,98931.92
2022-10-21T15:01:26.029Z,98936.49
2022-10-21T15:06:32.791Z,98935.86
2022-10-21T15:11:38.333Z,98931.58
2022-10-21T15:16:52.145Z,98933.91
2022-10-21T15:22:00.979Z,98942.37
2022-10-21T15:27:05.456Z,98949.20
2022-10-21T15:32:12.333Z,98954.41
2022-10-21T15:37:15.334Z,98957.95
2022-10-21T15:42:19.387Z,98964.13
2022-10-21T15:47:24.940Z,98970.64
2022-10-21T15:52:27.811Z,98969.11
2022-10-21T15:57:30.715Z,98974.48
2022-10-21T16:02:39.496Z,98970.55
2022-10-21T16:07:43.210Z,98978.55
2022-10-21T16:12:46.316Z,98984.27
2022-10-21T16:17:54.248Z,98990.84
2022-10-21T16:23:02.266Z,98999.01
2022-10-21T16:28:06.528Z,98997.98
2022-10-21T16:33:11.334Z,99002.38
2022-10-21T16:38:14.549Z,99006.14
2022-10-21T16:43:17.649Z,99002.96
2022-10-21T16:48:20.759Z,99004.90
2022-10-21T16:53:24.015Z,99003.33
2022-10-21T16:58:27.021Z,99004.55
2022-10-21T17:03:30.273Z,99001.80
2022-10-21T17:08:33.188Z,99000.58
2022-10-21T17:13:36.184Z,99004.36
2022-10-21T17:18:39.998Z,99002.20
2022-10-21T17:23:42.916Z,99000.64
2022-10-21T17:28:45.940Z,99003.83
2022-10-21T17:33:50.910Z,99006.54
2022-10-21T17:38:54.048Z,99008.33
2022-10-21T17:43:57.304Z,99004.70
2022-10-21T17:49:00.253Z,99007.25
2022-10-21T17:54:03.643Z,99001.80
2022-10-21T17:59:06.676Z,99000.27
2022-10-21T18:08:45.883Z,98996.98
2022-10-21T18:13:53.450Z,98996.38
2022-10-21T18:19:01.801Z,98999.59
2022-10-21T18:24:10.030Z,98998.41
2022-10-21T18:29:16.475Z,98986.83
2022-10-21T18:34:19.497Z,98990.18
2022-10-21T18:39:23.175Z,98982.67
2022-10-21T18:44:27.065Z,98981.01
2022-10-21T18:49:29.997Z,98982.29
2022-10-21T18:54:33.229Z,98981.13
2022-10-21T18:59:36.545Z,98974.00
2022-10-21T19:04:39.487Z,98965.13
2022-10-21T19:09:42.568Z,98970.02
2022-10-21T19:14:45.690Z,98976.73
2022-10-21T19:19:50.196Z,98973.92
2022-10-21T19:24:53.250Z,98968.34
2022-10-21T19:29:56.135Z,98970.30
2022-10-21T19:34:59.106Z,98971.52
2022-10-21T19:40:02.264Z,98964.17
2022-10-21T19:45:05.963Z,98962.86
2022-10-21T19:50:09.229Z,98963.64
2022-10-21T19:55:12.531Z,98956.84
2022-10-21T20:00:15.596Z,98951.34
2022-10-21T20:05:18.767Z,98944.84
2022-10-21T20:10:23.764Z,98939.30
2022-10-21T20:15:27.013Z,98933.10
2022-10-21T20:20:29.955Z,98919.36
2022-10-21T20:25:33.033Z,98901.58
2022-10-21T20:30:36.143Z,98887.86
2022-10-21T20:35:42.787Z,98878.85
2022-10-21T20:40:55.162Z,98871.63
2022-10-21T20:46:02.795Z,98868.95
2022-10-21T20:51:08.515Z,98876.50
2022-10-21T20:56:11.642Z,98877.93
2022-10-21T21:01:27.769Z,98884.15
2022-10-21T21:06:35.182Z,98889.71
2022-10-21T21:11:38.494Z,98895.04
2022-10-21T21:16:41.473Z,98885.49
2022-10-21T21:21:44.412Z,98884.01
2022-10-21T21:26:47.536Z,98888.91
2022-10-21T21:31:50.429Z,98881.70
2022-10-21T21:36:53.326Z,98884.64
2022-10-21T21:41:56.620Z,98881.00
2022-10-21T21:46:59.748Z,98874.10
2022-10-21T21:52:02.658Z,98882.73
2022-10-21T21:57:35.596Z,98872.59
2022-10-21T22:02:28.644Z,98860.09
2022-10-21T22:07:33.149Z,98865.05
2022-10-21T22:12:36.148Z,98866.34
2022-10-21T22:17:39.963Z,98868.10
2022-10-21T22:22:43.336Z,98871.54
2022-10-21T22:27:46.342Z,98880.47
2022-10-21T22:32:49.845Z,98897.78
2022-10-21T22:37:52.847Z,98900.61
2022-10-21T22:42:55.916Z,98901.20
2022-10-21T22:47:59.223Z,98896.85
2022-10-21T22:53:03.179Z,98892.45
2022-10-21T22:58:06.973Z,98894.60
2022-10-21T23:03:10.004Z,98894.38
2022-10-21T23:08:13.201Z,98897.88
2022-10-21T23:13:16.600Z,98891.14
2022-10-21T23:18:19.544Z,98890.59
2022-10-21T23:23:23.196Z,98893.89
2022-10-21T23:28:26.324Z,98884.13
2022-10-21T23:33:29.834Z,98874.98
2022-10-21T23:38:33.216Z,98878.83
2022-10-21T23:43:36.239Z,98873.29
2022-10-21T23:48:39.525Z,98877.75
2022-10-21T23:53:42.639Z,98888.52
2022-10-21T23:58:45.787Z,98878.57
